Terminal Aerodrome Forecast
Issued by NWS Paducah, KY

Home | Current Version | Previous Version | Text Only | Print | Product List | Glossary Off
Versions: 1 2 3 4 5 6 7 8 9 10 11 12

000
FTUS43 KPAH 201700
TAFPAH
TAF
KPAH 201720Z 2018/2118 28006KT P6SM SKC
     FM210100 VRB02KT P6SM SCT250
     FM211500 09007KT P6SM SCT050 BKN150=

USA.gov is the U.S. government's official web portal to all federal, state and local government web resources and services.